createdAt,value
2018-12-21T00:02:17.042Z,0.71
2018-12-21T00:07:23.170Z,0.49
2018-12-21T00:12:29.362Z,0.74
2018-12-21T00:17:35.493Z,0.45
2018-12-21T00:22:41.678Z,0.48
2018-12-21T00:27:47.799Z,0.58
2018-12-21T00:32:54.070Z,0.53
2018-12-21T00:38:00.206Z,0.36
2018-12-21T00:43:06.374Z,0.53
2018-12-21T00:48:12.559Z,0.72
2018-12-21T00:53:18.699Z,0.60
2018-12-21T00:58:24.996Z,0.78
2018-12-21T01:03:31.094Z,0.61
2018-12-21T01:08:37.265Z,0.34
2018-12-21T01:13:43.415Z,0.42
2018-12-21T01:18:50.091Z,0.84
2018-12-21T01:23:56.227Z,0.56
2018-12-21T01:29:02.593Z,0.77
2018-12-21T01:34:08.714Z,0.43
2018-12-21T01:39:14.900Z,0.51
2018-12-21T01:44:21.058Z,0.45
2018-12-21T01:49:27.207Z,0.34
2018-12-21T01:54:33.439Z,0.46
2018-12-21T01:59:39.580Z,0.56
2018-12-21T02:04:45.739Z,0.44
2018-12-21T02:09:51.891Z,0.47
2018-12-21T02:14:59.462Z,0.68
2018-12-21T02:20:05.611Z,0.41
2018-12-21T02:25:11.774Z,0.58
2018-12-21T02:30:17.921Z,0.83
2018-12-21T02:35:24.175Z,0.55
2018-12-21T02:40:30.322Z,0.56
2018-12-21T02:45:36.687Z,0.57
2018-12-21T02:50:42.825Z,0.49
2018-12-21T02:55:49.166Z,0.71
2018-12-21T03:00:55.239Z,0.58
2018-12-21T03:06:01.494Z,0.77
2018-12-21T03:11:07.581Z,0.44
2018-12-21T03:16:13.771Z,0.37
2018-12-21T03:21:19.904Z,0.30
2018-12-21T03:26:26.082Z,0.40
2018-12-21T03:31:32.239Z,0.55
2018-12-21T03:36:38.427Z,0.43
2018-12-21T03:41:44.586Z,0.29
2018-12-21T03:46:50.743Z,0.65
2018-12-21T03:51:56.880Z,0.41
2018-12-21T03:57:03.203Z,0.29
2018-12-21T04:02:09.323Z,0.48
2018-12-21T04:07:15.503Z,0.47
2018-12-21T04:12:23.908Z,0.35
2018-12-21T04:17:30.123Z,0.36
2018-12-21T04:22:36.453Z,0.44
2018-12-21T04:27:42.582Z,0.41
2018-12-21T04:32:48.763Z,0.51
2018-12-21T04:37:54.919Z,0.55
2018-12-21T04:43:01.312Z,0.47
2018-12-21T04:48:07.506Z,0.39
2018-12-21T04:53:13.688Z,0.49
2018-12-21T04:58:20.016Z,0.37
2018-12-21T05:03:26.157Z,0.47
2018-12-21T05:08:32.328Z,0.48
2018-12-21T05:13:38.466Z,0.32
2018-12-21T05:18:44.757Z,0.47
2018-12-21T05:23:50.906Z,0.54
2018-12-21T05:28:57.143Z,0.58
2018-12-21T05:34:03.267Z,0.52
2018-12-21T05:39:09.504Z,0.46
2018-12-21T05:44:15.647Z,0.58
2018-12-21T05:49:21.824Z,0.28
2018-12-21T05:54:28.062Z,0.44
2018-12-21T05:59:34.234Z,0.37
2018-12-21T06:04:40.387Z,0.34
2018-12-21T06:09:46.605Z,0.43
2018-12-21T06:14:52.756Z,0.36
2018-12-21T06:19:58.938Z,0.36
2018-12-21T06:25:05.084Z,0.35
2018-12-21T06:30:11.386Z,0.29
2018-12-21T06:35:17.623Z,0.37
2018-12-21T06:40:23.807Z,0.48
2018-12-21T06:45:29.956Z,0.40
2018-12-21T06:50:36.172Z,0.42
2018-12-21T06:55:42.331Z,0.60
2018-12-21T07:00:48.615Z,0.75
2018-12-21T07:05:54.800Z,0.59
2018-12-21T07:11:01.042Z,0.45
2018-12-21T07:16:07.179Z,0.79
2018-12-21T07:21:13.359Z,0.38
2018-12-21T07:26:19.523Z,0.31
2018-12-21T07:31:25.703Z,0.45
2018-12-21T07:36:31.872Z,0.62
2018-12-21T07:41:38.135Z,0.45
2018-12-21T07:46:44.294Z,0.41
2018-12-21T07:51:50.594Z,0.44
2018-12-21T07:56:56.735Z,0.43
2018-12-21T08:02:03.067Z,0.54
2018-12-21T08:07:09.224Z,0.46
2018-12-21T08:12:15.419Z,0.50
2018-12-21T08:17:21.586Z,0.62
2018-12-21T08:22:27.789Z,0.35
2018-12-21T08:27:33.933Z,0.50
2018-12-21T08:32:40.200Z,0.55
2018-12-21T08:37:46.348Z,0.36
2018-12-21T08:42:52.646Z,0.46
2018-12-21T08:47:58.774Z,0.46
2018-12-21T08:53:05.003Z,0.35
2018-12-21T08:58:11.387Z,0.43
2018-12-21T09:03:17.537Z,0.33
2018-12-21T09:08:23.693Z,0.50
2018-12-21T09:13:29.943Z,0.66
2018-12-21T09:18:36.149Z,0.54
2018-12-21T09:23:42.484Z,0.41
2018-12-21T09:28:48.759Z,0.62
2018-12-21T09:33:54.954Z,0.37
2018-12-21T09:39:01.091Z,0.79
2018-12-21T09:44:07.351Z,0.62
2018-12-21T09:49:13.679Z,0.47
2018-12-21T09:54:19.840Z,0.45
2018-12-21T09:59:26.039Z,0.47
2018-12-21T10:04:32.267Z,0.50
2018-12-21T10:09:38.627Z,0.76
2018-12-21T10:14:44.991Z,0.97
2018-12-21T10:19:51.185Z,0.52
2018-12-21T10:24:57.406Z,0.70
2018-12-21T10:30:03.590Z,0.52
2018-12-21T10:35:09.764Z,0.64
2018-12-21T10:40:15.953Z,0.47
2018-12-21T10:45:22.108Z,0.49
2018-12-21T10:50:28.284Z,0.58
2018-12-21T10:55:34.448Z,0.47
2018-12-21T11:00:40.743Z,0.44
2018-12-21T11:05:46.909Z,0.62
2018-12-21T11:10:53.209Z,0.42
2018-12-21T11:15:59.419Z,0.78
2018-12-21T11:21:05.702Z,0.47
2018-12-21T11:26:11.904Z,0.48
2018-12-21T11:31:18.151Z,0.52
2018-12-21T11:36:24.282Z,0.52
2018-12-21T11:41:30.561Z,0.69
2018-12-21T11:46:36.672Z,0.59
2018-12-21T11:51:43.008Z,0.83
2018-12-21T11:56:49.138Z,1.10
2018-12-21T12:01:55.380Z,1.75
2018-12-21T12:07:01.527Z,1.30
2018-12-21T12:12:07.790Z,0.86
2018-12-21T12:17:14.018Z,0.51
2018-12-21T12:22:20.201Z,0.79
2018-12-21T12:27:26.362Z,0.93
2018-12-21T12:32:32.649Z,0.71
2018-12-21T12:37:38.807Z,0.70
2018-12-21T12:42:45.055Z,0.78
2018-12-21T12:47:51.196Z,0.77
2018-12-21T12:52:57.375Z,0.44
2018-12-21T12:58:03.626Z,0.51
2018-12-21T13:03:09.756Z,0.48
2018-12-21T13:08:16.038Z,0.41
2018-12-21T13:13:22.176Z,0.33
2018-12-21T13:18:28.401Z,0.48
2018-12-21T13:23:34.556Z,0.51
2018-12-21T13:28:40.766Z,0.66
2018-12-21T13:33:47.056Z,0.76
2018-12-21T13:38:53.381Z,0.45
2018-12-21T13:43:59.582Z,0.49
2018-12-21T13:49:05.881Z,0.55
2018-12-21T13:54:12.022Z,0.41
2018-12-21T13:59:18.223Z,0.48
2018-12-21T14:04:24.385Z,1.83
2018-12-21T14:09:30.597Z,1.41
2018-12-21T14:14:36.770Z,0.81
2018-12-21T14:19:42.946Z,1.13
2018-12-21T14:24:49.150Z,0.98
2018-12-21T14:29:55.377Z,1.32
2018-12-21T14:35:01.495Z,1.01
2018-12-21T14:40:07.829Z,0.58
2018-12-21T14:45:14.030Z,0.71
2018-12-21T14:50:20.163Z,0.77
2018-12-21T14:55:26.621Z,0.72
2018-12-21T15:00:32.762Z,0.59
2018-12-21T15:05:39.121Z,0.43
2018-12-21T15:10:45.262Z,0.55
2018-12-21T15:15:51.633Z,0.71
2018-12-21T15:20:57.783Z,0.84
2018-12-21T15:26:03.987Z,0.50
2018-12-21T15:31:10.150Z,0.42
2018-12-21T15:36:16.432Z,0.43
2018-12-21T15:41:22.603Z,0.63
2018-12-21T15:46:28.875Z,0.55
2018-12-21T15:51:37.185Z,0.43
2018-12-21T15:56:43.264Z,0.50
2018-12-21T16:01:49.467Z,0.58
2018-12-21T16:06:55.756Z,0.60
2018-12-21T16:12:01.886Z,0.80
2018-12-21T16:17:08.223Z,0.44
2018-12-21T16:22:14.380Z,0.46
2018-12-21T16:27:20.570Z,0.86
2018-12-21T16:32:26.694Z,0.74
2018-12-21T16:37:32.951Z,0.80
2018-12-21T16:42:39.134Z,0.92
2018-12-21T16:47:45.413Z,1.52
2018-12-21T16:52:51.803Z,1.32
2018-12-21T16:57:58.016Z,1.69
2018-12-21T17:03:04.193Z,1.07
2018-12-21T17:08:10.367Z,0.81
2018-12-21T17:13:16.571Z,1.76
2018-12-21T17:18:22.726Z,1.39
2018-12-21T17:23:28.949Z,1.10
2018-12-21T17:28:35.108Z,1.14
2018-12-21T17:33:42.054Z,1.19
2018-12-21T17:38:48.116Z,0.71
2018-12-21T17:43:54.426Z,0.60
2018-12-21T17:49:00.591Z,0.94
2018-12-21T17:54:06.893Z,0.67
2018-12-21T17:59:14.387Z,0.77
2018-12-21T18:04:19.063Z,0.95
2018-12-21T18:09:25.208Z,0.80
2018-12-21T18:14:31.406Z,0.61
2018-12-21T18:19:37.579Z,0.69
2018-12-21T18:24:43.752Z,0.49
2018-12-21T18:29:49.935Z,0.88
2018-12-21T18:34:56.143Z,0.68
2018-12-21T18:40:02.283Z,0.68
2018-12-21T18:45:08.466Z,0.61
2018-12-21T18:50:14.603Z,0.62
2018-12-21T18:55:20.824Z,0.71
2018-12-21T19:00:26.958Z,0.46
2018-12-21T19:05:33.187Z,0.69
2018-12-21T19:10:39.323Z,0.67
2018-12-21T19:15:45.498Z,0.72
2018-12-21T19:20:51.668Z,0.84
2018-12-21T19:25:58.170Z,0.70
2018-12-21T19:31:06.309Z,0.78
2018-12-21T19:36:12.304Z,0.65
2018-12-21T19:41:18.438Z,0.91
2018-12-21T19:46:24.636Z,0.87
2018-12-21T19:51:30.787Z,0.50
2018-12-21T19:56:37.055Z,0.73
2018-12-21T20:01:43.199Z,1.20
2018-12-21T20:06:49.441Z,1.12
2018-12-21T20:11:55.592Z,0.85
2018-12-21T20:17:01.777Z,1.37
2018-12-21T20:22:08.007Z,0.78
2018-12-21T20:27:14.230Z,0.61
2018-12-21T20:32:21.972Z,1.06
2018-12-21T20:37:26.122Z,0.53
2018-12-21T20:42:32.282Z,0.41
2018-12-21T20:47:38.486Z,0.76
2018-12-21T20:52:44.616Z,0.59
2018-12-21T20:57:50.824Z,0.50
2018-12-21T21:02:56.962Z,0.51
2018-12-21T21:08:03.212Z,0.48
2018-12-21T21:13:09.462Z,0.76
2018-12-21T21:18:15.641Z,0.45
2018-12-21T21:23:21.825Z,0.46
2018-12-21T21:28:27.955Z,0.62
2018-12-21T21:33:34.199Z,0.78
2018-12-21T21:38:40.349Z,0.53
2018-12-21T21:43:46.579Z,0.67
2018-12-21T21:48:52.744Z,0.57
2018-12-21T21:53:58.930Z,0.68
2018-12-21T21:59:05.156Z,1.08
2018-12-21T22:04:11.238Z,0.81
2018-12-21T22:09:17.391Z,0.70
2018-12-21T22:14:23.562Z,0.98
2018-12-21T22:19:29.745Z,1.11
2018-12-21T22:24:35.878Z,0.72
2018-12-21T22:29:42.078Z,0.76
2018-12-21T22:34:48.215Z,0.90
2018-12-21T22:39:54.399Z,1.19
2018-12-21T22:45:00.530Z,0.71
2018-12-21T22:50:06.784Z,1.01
2018-12-21T22:55:12.912Z,1.29
2018-12-21T23:00:19.174Z,1.25
2018-12-21T23:05:25.311Z,0.95
2018-12-21T23:10:31.883Z,1.13
2018-12-21T23:15:38.034Z,0.92
2018-12-21T23:20:44.304Z,0.83
2018-12-21T23:25:50.514Z,0.91
2018-12-21T23:30:56.700Z,1.21
2018-12-21T23:36:02.831Z,1.27
2018-12-21T23:41:09.013Z,1.56
2018-12-21T23:46:15.153Z,0.95
2018-12-21T23:51:21.326Z,1.13
2018-12-21T23:56:27.531Z,1.00
